Sadan Bayraktar — TCRB — position and weather

sailwx.info

Track history (hours):
 
Tides and Currents Weather Stations Pressure Air Temp Water Temp Dewpoint Dewpoint Depression Visibility Wind Speed Wind Dir Waves Ship Positions

Sadan Bayraktar

Last reported at 2016-Apr-28 21:07 UTC. Time now 2016-May-02 03:44 UTC.
Position N 39°24' W 000°14'.

Length 116 m; draft 5.3 m.

Type: Ship. MMSI: 271000653.

Date/timePositionNaut miles runAvg speedWind from/ knotsBaromVisibWave heightAir tempDewpointWater temp
2016-Apr-28 21:07N 39°24' W 000°14'5 8.8
2016-Apr-28 20:33N 39°27' W 000°19'0 0.2
2016-Apr-28 19:32N 39°27' W 000°19'0 0.0
2016-Apr-28 18:32N 39°27' W 000°19'0 0.0
2016-Apr-28 17:32N 39°27' W 000°19'0 0.0
2016-Apr-28 16:32N 39°27' W 000°19'0 0.0
2016-Apr-28 15:32N 39°27' W 000°19'0 0.0
2016-Apr-28 14:32N 39°27' W 000°19'0 0.0
2016-Apr-28 13:32N 39°27' W 000°19'0 0.0
2016-Apr-28 12:29N 39°27' W 000°19'0 0.0
2016-Apr-28 11:32N 39°27' W 000°19'0 0.0
2016-Apr-28 10:32N 39°27' W 000°19'0 0.0
2016-Apr-28 09:32N 39°27' W 000°19'0 0.0
2016-Apr-28 08:32N 39°27' W 000°19'0 0.0
2016-Apr-28 07:32N 39°27' W 000°19'0 0.0
2016-Apr-28 04:17N 39°27' W 000°19'0 0.0
2016-Apr-28 03:33N 39°27' W 000°19'4 0.2
2016-Apr-27 05:29N 39°23' W 000°18'0 0.0
2016-Apr-26 21:11N 39°23' W 000°18'5211.0
2016-Apr-26 16:27N 38°45' E 000°29'2812.5
2016-Apr-26 14:12N 38°18' E 000°24'812.0
2016-Apr-26 13:33N 38°10' E 000°23'3712.0
2016-Apr-26 10:30N 37°34' E 000°17'1312.4
2016-Apr-26 09:25N 37°21' E 000°11'2312.3
2016-Apr-26 07:33N 36°59' E 000°02'7912.3
2016-Apr-26 01:09N 35°47' W 000°36'  
2016-Apr-22 16:14N 35°45' W 000°37'0 0.0
2016-Apr-22 09:29N 35°45' W 000°37'0 0.0
2016-Apr-22 08:33N 35°45' W 000°37'0 0.0
2016-Apr-22 07:33N 35°45' W 000°37'0 0.0
2016-Apr-22 06:33N 35°45' W 000°37'0 0.0
2016-Apr-22 05:33N 35°45' W 000°37'0 0.0
2016-Apr-22 04:33N 35°45' W 000°37'13 3.9
2016-Apr-22 01:16N 35°57' W 000°32'911.2
2016-Apr-22 00:27N 36°06' W 000°27'1010.8
2016-Apr-21 23:33N 36°15' W 000°22'2211.1
2016-Apr-21 21:33N 36°35' W 000°13'1111.2
2016-Apr-21 20:33N 36°46' W 000°08'1111.3
2016-Apr-21 19:32N 36°57' W 000°05'1511.2
2016-Apr-21 18:14N 37°11' E 000°00'17411.1
2016-Apr-21 02:30N 39°53' E 001°22'1111.6
2016-Apr-21 01:33N 40°03' E 001°28'1211.5
2016-Apr-21 00:33N 40°14' E 001°33'1111.4
2016-Apr-20 23:33N 40°25' E 001°38'1111.3
2016-Apr-20 22:33N 40°35' E 001°44'1111.4
2016-Apr-20 21:33N 40°46' E 001°49'1111.2
2016-Apr-20 20:33N 40°56' E 001°56'1111.4
2016-Apr-20 19:33N 41°06' E 002°03'1211.4
2016-Apr-20 18:29N 41°17' E 002°11'5 0.8
2016-Apr-20 12:33N 41°21' E 002°10'19 6.3
2016-Apr-20 09:33N 41°05' E 001°59'36 9.0
2016-Apr-20 05:33N 40°36' E 001°31'9 9.4
2016-Apr-20 04:33N 40°29' E 001°22'10 9.6
2016-Apr-20 03:33N 40°23' E 001°12'8410.4
2016-Apr-19 19:33N 39°29' W 000°11'7 6.2
2016-Apr-19 18:31N 39°27' W 000°19'0 0.0
2016-Apr-19 17:31N 39°27' W 000°19'0 0.0
2016-Apr-19 16:31N 39°27' W 000°19'0 0.0
2016-Apr-19 15:31N 39°27' W 000°19'0 0.0
2016-Apr-19 14:22N 39°27' W 000°19'0 0.0
2016-Apr-19 13:28N 39°27' W 000°19'0 0.0
2016-Apr-19 12:28N 39°27' W 000°19'0 0.0
2016-Apr-19 11:28N 39°27' W 000°19'0 0.0
2016-Apr-19 10:25N 39°27' W 000°19'0 0.0
2016-Apr-19 09:31N 39°27' W 000°19'0 0.0
2016-Apr-19 08:25N 39°27' W 000°19'0 0.0
2016-Apr-19 07:31N 39°27' W 000°19'0 0.0
2016-Apr-19 06:28N 39°27' W 000°19'0 0.0
2016-Apr-19 05:31N 39°27' W 000°19'0 0.0
2016-Apr-19 04:31N 39°27' W 000°19'0 0.0
2016-Apr-19 03:31N 39°27' W 000°19'0 0.0
2016-Apr-19 02:31N 39°27' W 000°19'0 0.0
2016-Apr-19 01:31N 39°27' W 000°19'0 0.0
2016-Apr-19 00:31N 39°27' W 000°19'0 0.0
2016-Apr-18 23:34N 39°27' W 000°19'7 7.0
2016-Apr-18 22:31N 39°27' W 000°10'  
Track history (hours):
 
Tides and Currents Weather Stations Pressure Air Temp Water Temp Dewpoint Dewpoint Depression Visibility Wind Speed Wind Dir Waves Ship Positions

Sadan Bayraktar

Last reported at 2016-Apr-28 21:07 UTC. Time now 2016-May-02 03:44 UTC.
Position N 39°24' W 000°14'.

Length 116 m; draft 5.3 m.

Type: Ship. MMSI: 271000653.

Date/timePositionNaut miles runAvg speedWind from/ knotsBaromVisibWave heightAir tempDewpointWater temp
2016-Apr-28 21:07N 39°24' W 000°14'5 8.8
2016-Apr-28 20:33N 39°27' W 000°19'0 0.2
2016-Apr-28 19:32N 39°27' W 000°19'0 0.0
2016-Apr-28 18:32N 39°27' W 000°19'0 0.0
2016-Apr-28 17:32N 39°27' W 000°19'0 0.0
2016-Apr-28 16:32N 39°27' W 000°19'0 0.0
2016-Apr-28 15:32N 39°27' W 000°19'0 0.0
2016-Apr-28 14:32N 39°27' W 000°19'0 0.0
2016-Apr-28 13:32N 39°27' W 000°19'0 0.0
2016-Apr-28 12:29N 39°27' W 000°19'0 0.0
2016-Apr-28 11:32N 39°27' W 000°19'0 0.0
2016-Apr-28 10:32N 39°27' W 000°19'0 0.0
2016-Apr-28 09:32N 39°27' W 000°19'0 0.0
2016-Apr-28 08:32N 39°27' W 000°19'0 0.0
2016-Apr-28 07:32N 39°27' W 000°19'0 0.0
2016-Apr-28 04:17N 39°27' W 000°19'0 0.0
2016-Apr-28 03:33N 39°27' W 000°19'4 0.2
2016-Apr-27 05:29N 39°23' W 000°18'0 0.0
2016-Apr-26 21:11N 39°23' W 000°18'5211.0
2016-Apr-26 16:27N 38°45' E 000°29'2812.5
2016-Apr-26 14:12N 38°18' E 000°24'812.0
2016-Apr-26 13:33N 38°10' E 000°23'3712.0
2016-Apr-26 10:30N 37°34' E 000°17'1312.4
2016-Apr-26 09:25N 37°21' E 000°11'2312.3
2016-Apr-26 07:33N 36°59' E 000°02'7912.3
2016-Apr-26 01:09N 35°47' W 000°36'  
2016-Apr-22 16:14N 35°45' W 000°37'0 0.0
2016-Apr-22 09:29N 35°45' W 000°37'0 0.0
2016-Apr-22 08:33N 35°45' W 000°37'0 0.0
2016-Apr-22 07:33N 35°45' W 000°37'0 0.0
2016-Apr-22 06:33N 35°45' W 000°37'0 0.0
2016-Apr-22 05:33N 35°45' W 000°37'0 0.0
2016-Apr-22 04:33N 35°45' W 000°37'13 3.9
2016-Apr-22 01:16N 35°57' W 000°32'911.2
2016-Apr-22 00:27N 36°06' W 000°27'1010.8
2016-Apr-21 23:33N 36°15' W 000°22'2211.1
2016-Apr-21 21:33N 36°35' W 000°13'1111.2
2016-Apr-21 20:33N 36°46' W 000°08'1111.3
2016-Apr-21 19:32N 36°57' W 000°05'1511.2
2016-Apr-21 18:14N 37°11' E 000°00'17411.1
2016-Apr-21 02:30N 39°53' E 001°22'1111.6
2016-Apr-21 01:33N 40°03' E 001°28'1211.5
2016-Apr-21 00:33N 40°14' E 001°33'1111.4
2016-Apr-20 23:33N 40°25' E 001°38'1111.3
2016-Apr-20 22:33N 40°35' E 001°44'1111.4
2016-Apr-20 21:33N 40°46' E 001°49'1111.2
2016-Apr-20 20:33N 40°56' E 001°56'1111.4
2016-Apr-20 19:33N 41°06' E 002°03'1211.4
2016-Apr-20 18:29N 41°17' E 002°11'5 0.8
2016-Apr-20 12:33N 41°21' E 002°10'19 6.3
2016-Apr-20 09:33N 41°05' E 001°59'36 9.0
2016-Apr-20 05:33N 40°36' E 001°31'9 9.4
2016-Apr-20 04:33N 40°29' E 001°22'10 9.6
2016-Apr-20 03:33N 40°23' E 001°12'8410.4
2016-Apr-19 19:33N 39°29' W 000°11'7 6.2
2016-Apr-19 18:31N 39°27' W 000°19'0 0.0
2016-Apr-19 17:31N 39°27' W 000°19'0 0.0
2016-Apr-19 16:31N 39°27' W 000°19'0 0.0
2016-Apr-19 15:31N 39°27' W 000°19'0 0.0
2016-Apr-19 14:22N 39°27' W 000°19'0 0.0
2016-Apr-19 13:28N 39°27' W 000°19'0 0.0
2016-Apr-19 12:28N 39°27' W 000°19'0 0.0
2016-Apr-19 11:28N 39°27' W 000°19'0 0.0
2016-Apr-19 10:25N 39°27' W 000°19'0 0.0
2016-Apr-19 09:31N 39°27' W 000°19'0 0.0
2016-Apr-19 08:25N 39°27' W 000°19'0 0.0
2016-Apr-19 07:31N 39°27' W 000°19'0 0.0
2016-Apr-19 06:28N 39°27' W 000°19'0 0.0
2016-Apr-19 05:31N 39°27' W 000°19'0 0.0
2016-Apr-19 04:31N 39°27' W 000°19'0 0.0
2016-Apr-19 03:31N 39°27' W 000°19'0 0.0
2016-Apr-19 02:31N 39°27' W 000°19'0 0.0
2016-Apr-19 01:31N 39°27' W 000°19'0 0.0
2016-Apr-19 00:31N 39°27' W 000°19'0 0.0
2016-Apr-18 23:34N 39°27' W 000°19'7 7.0
2016-Apr-18 22:31N 39°27' W 000°10'  

Dump ship's entire track history